Time;durP1;ratioP1;P1;durP2;ratioP2;P2;SDS_P1;SDS_P2;PMS_P1;PMS_P2;Temp;Humidity;BMP_temperature;BMP_pressure;BME280_temperature;BME280_humidity;BME280_pressure;Samples;Min_cycle;Max_cycle;Signal;HPM_P1;HPM_P2
2023/04/16 00:00:38;;;;;;;47.33;34.87;;;;;;;9.88;100.00;100356.88;5044923;28;20643;-73
2023/04/16 00:03:04;;;;;;;44.80;34.63;;;;;;;9.89;100.00;100356.00;5042945;28;20652;-76
2023/04/16 00:05:29;;;;;;;47.47;36.80;;;;;;;9.89;100.00;100355.16;5037919;28;20220;-72
2023/04/16 00:07:54;;;;;;;46.67;38.03;;;;;;;9.90;100.00;100355.16;5040662;28;20184;-73
2023/04/16 00:10:21;;;;;;;46.50;36.30;;;;;;;9.90;100.00;100354.31;5033803;28;20318;-75
2023/04/16 00:12:46;;;;;;;45.77;36.70;;;;;;;9.90;100.00;100354.31;5043204;28;20274;-75
2023/04/16 00:15:11;;;;;;;45.97;37.00;;;;;;;9.89;100.00;100365.50;5029906;28;20230;-73
2023/04/16 00:17:37;;;;;;;48.17;37.03;;;;;;;9.86;100.00;100363.78;5046578;28;20191;-74
2023/04/16 00:20:02;;;;;;;47.33;38.47;;;;;;;9.87;100.00;100362.06;5040049;28;20187;-73
2023/04/16 00:22:28;;;;;;;46.10;36.77;;;;;;;9.86;100.00;100365.53;5048113;28;20186;-74
2023/04/16 00:24:53;;;;;;;48.80;38.03;;;;;;;9.85;100.00;100366.38;5046970;28;20206;-73
2023/04/16 00:27:19;;;;;;;45.17;36.37;;;;;;;9.85;100.00;100364.63;5047307;28;20275;-75
2023/04/16 00:29:44;;;;;;;48.50;37.63;;;;;;;9.85;100.00;100353.47;5042443;28;21238;-73
2023/04/16 00:32:09;;;;;;;48.30;38.53;;;;;;;9.84;100.00;100368.09;5039892;28;20187;-74
2023/04/16 00:34:35;;;;;;;48.43;38.27;;;;;;;9.84;100.00;100364.66;5040276;28;20190;-71
2023/04/16 00:37:00;;;;;;;46.40;37.17;;;;;;;9.83;100.00;100371.53;5044479;28;20646;-74
2023/04/16 00:39:25;;;;;;;44.37;35.67;;;;;;;9.81;100.00;100365.53;5059929;28;20194;-74
2023/04/16 00:41:51;;;;;;;48.77;37.73;;;;;;;9.81;100.00;100368.13;5043999;28;20186;-74
2023/04/16 00:44:16;;;;;;;44.03;35.27;;;;;;;9.80;100.00;100368.13;5036410;28;20218;-73
2023/04/16 00:46:42;;;;;;;45.30;35.80;;;;;;;9.79;100.00;100368.97;5039604;28;20343;-73
2023/04/16 00:49:08;;;;;;;47.57;37.27;;;;;;;9.80;100.00;100378.47;5031706;28;20226;-73
2023/04/16 00:51:34;;;;;;;45.30;36.57;;;;;;;9.79;100.00;100372.44;5044986;28;20202;-73
2023/04/16 00:54:01;;;;;;;42.83;34.63;;;;;;;9.80;100.00;100363.81;5045650;28;20191;-74
2023/04/16 00:56:27;;;;;;;46.83;37.63;;;;;;;9.79;100.00;100372.44;5044218;28;20210;-74
2023/04/16 00:58:55;;;;;;;43.40;35.43;;;;;;;9.79;100.00;100372.44;5043646;28;20206;-73
2023/04/16 01:01:20;;;;;;;43.20;34.77;;;;;;;9.80;100.00;100376.75;5047616;28;20194;-71
2023/04/16 01:03:47;;;;;;;41.73;33.37;;;;;;;9.81;100.00;100375.00;5047527;28;20197;-74
2023/04/16 01:06:13;;;;;;;42.70;35.40;;;;;;;9.81;100.00;100372.44;5036661;28;20204;-72
2023/04/16 01:08:39;;;;;;;42.23;34.57;;;;;;;9.82;100.00;100372.44;5050324;28;20235;-74
2023/04/16 01:11:05;;;;;;;44.57;35.20;;;;;;;9.83;100.00;100371.53;5043723;28;20226;-74
2023/04/16 01:13:32;;;;;;;45.67;36.00;;;;;;;9.86;100.00;100373.28;5042141;28;20252;-73
2023/04/16 01:15:58;;;;;;;45.47;36.67;;;;;;;9.85;100.00;100382.75;5034538;28;20207;-74
2023/04/16 01:18:25;;;;;;;44.30;35.03;;;;;;;9.84;100.00;100380.16;5040697;28;20206;-73
2023/04/16 01:20:51;;;;;;;44.90;35.87;;;;;;;9.83;100.00;100376.72;5045520;28;20557;-73
2023/04/16 01:23:20;;;;;;;47.80;36.30;;;;;;;9.83;100.00;100381.88;5040576;28;20191;-74
2023/04/16 01:25:46;;;;;;;43.47;35.43;;;;;;;9.81;100.00;100378.47;5042472;28;20233;-75
2023/04/16 01:28:11;;;;;;;43.47;35.70;;;;;;;9.82;100.00;100380.19;5033076;28;20195;-70
2023/04/16 01:30:36;;;;;;;45.93;36.73;;;;;;;9.81;100.00;100380.19;5034769;28;20605;-74
2023/04/16 01:33:02;;;;;;;48.87;38.30;;;;;;;9.77;100.00;100377.59;5035371;28;20656;-75
2023/04/16 01:35:27;;;;;;;42.60;34.73;;;;;;;9.76;100.00;100383.63;5039069;28;20646;-74
2023/04/16 01:37:53;;;;;;;47.57;38.43;;;;;;;9.75;100.00;100386.25;5045158;28;20214;-73
2023/04/16 01:40:18;;;;;;;43.30;36.17;;;;;;;9.74;100.00;100393.16;5036851;28;20760;-73
2023/04/16 01:42:44;;;;;;;41.77;35.40;;;;;;;9.73;100.00;100390.53;5038601;28;20190;-72
2023/04/16 01:45:10;;;;;;;44.27;36.27;;;;;;;9.72;100.00;100383.66;5045438;28;20211;-73
2023/04/16 01:47:35;;;;;;;41.90;34.10;;;;;;;9.72;100.00;100394.00;5038690;28;20212;-72
2023/04/16 01:50:01;;;;;;;43.40;36.00;;;;;;;9.72;100.00;100388.81;5033008;28;20294;-73
2023/04/16 01:52:26;;;;;;;40.43;34.60;;;;;;;9.70;100.00;100386.25;5036623;28;20870;-75
2023/04/16 01:54:51;;;;;;;43.80;35.90;;;;;;;9.70;100.00;100388.84;5044440;28;20219;-73
2023/04/16 01:57:17;;;;;;;40.67;34.93;;;;;;;9.71;100.00;100390.56;5045642;28;20237;-74
2023/04/16 01:59:42;;;;;;;42.83;35.73;;;;;;;9.72;100.00;100392.28;5036069;28;20175;-74
2023/04/16 02:02:10;;;;;;;41.93;34.60;;;;;;;9.73;100.00;100391.41;5042582;28;20302;-74
2023/04/16 02:04:37;;;;;;;40.20;35.10;;;;;;;9.72;100.00;100394.00;5043318;28;20185;-74
2023/04/16 02:07:04;;;;;;;42.73;35.43;;;;;;;9.71;100.00;100393.16;5061332;28;20659;-74
2023/04/16 02:09:29;;;;;;;38.87;33.53;;;;;;;9.70;100.00;100390.56;5050924;28;20214;-74
2023/04/16 02:11:54;;;;;;;40.23;34.03;;;;;;;9.71;100.00;100385.41;5046446;28;20187;-75
2023/04/16 02:14:21;;;;;;;41.60;35.23;;;;;;;9.72;100.00;100391.41;5043089;28;20201;-73
2023/04/16 02:16:46;;;;;;;40.57;34.07;;;;;;;9.72;100.00;100388.81;5043122;28;20219;-73
2023/04/16 02:19:12;;;;;;;43.60;35.57;;;;;;;9.72;100.00;100387.13;5034632;28;20552;-72
2023/04/16 02:21:37;;;;;;;42.57;34.90;;;;;;;9.71;100.00;100389.69;5053330;28;20273;-73
2023/04/16 02:24:02;;;;;;;39.33;34.47;;;;;;;9.68;100.00;100392.31;5033644;28;20265;-73
2023/04/16 02:26:28;;;;;;;43.13;35.70;;;;;;;9.68;100.00;100389.72;5038860;28;20214;-73
2023/04/16 02:28:54;;;;;;;41.97;35.43;;;;;;;9.67;100.00;100395.75;5038540;28;20187;-73
2023/04/16 02:31:21;;;;;;;44.33;36.93;;;;;;;9.65;100.00;100398.31;5046817;28;20219;-73
2023/04/16 02:33:46;;;;;;;43.93;36.57;;;;;;;9.64;100.00;100399.19;5037810;28;20206;-74
2023/04/16 02:36:11;;;;;;;44.87;38.40;;;;;;;9.63;100.00;100392.31;5036584;28;20214;-71
2023/04/16 02:38:37;;;;;;;43.70;37.50;;;;;;;9.61;100.00;100397.47;5043635;28;20269;-74
2023/04/16 02:41:02;;;;;;;47.10;38.07;;;;;;;9.59;100.00;100401.78;5039499;28;20192;-74
2023/04/16 02:43:27;;;;;;;45.57;37.50;;;;;;;9.59;100.00;100403.53;5057407;28;20293;-74
2023/04/16 02:45:53;;;;;;;43.70;36.17;;;;;;;9.57;100.00;100400.94;5037302;28;20290;-73
2023/04/16 02:48:18;;;;;;;43.10;35.43;;;;;;;9.57;100.00;100405.25;5041595;28;20201;-74
2023/04/16 02:50:43;;;;;;;45.97;37.33;;;;;;;9.58;100.00;100396.66;5036301;28;20210;-75
2023/04/16 02:53:09;;;;;;;44.47;36.80;;;;;;;9.57;100.00;100400.09;5045401;28;20191;-76
2023/04/16 02:55:35;;;;;;;43.23;36.17;;;;;;;9.57;100.00;100400.94;5035647;28;20209;-74
2023/04/16 02:58:00;;;;;;;44.33;36.87;;;;;;;9.57;100.00;100394.91;5046982;28;22268;-74
2023/04/16 03:00:25;;;;;;;43.00;35.70;;;;;;;9.58;100.00;100399.22;5037059;28;20253;-73
2023/04/16 03:02:50;;;;;;;45.33;36.27;;;;;;;9.58;100.00;100396.66;5043188;28;20198;-74
2023/04/16 03:05:16;;;;;;;43.70;36.60;;;;;;;9.57;100.00;100405.25;5042335;28;20402;-73
2023/04/16 03:07:41;;;;;;;41.90;35.93;;;;;;;9.56;100.00;100409.53;5048790;28;20731;-73
2023/04/16 03:10:07;;;;;;;41.97;36.13;;;;;;;9.58;100.00;100405.25;5027003;28;20265;-75
2023/04/16 03:12:33;;;;;;;42.67;36.23;;;;;;;9.59;100.00;100413.88;5041017;28;20187;-75
2023/04/16 03:14:59;;;;;;;41.67;36.37;;;;;;;9.58;100.00;100410.41;5038004;28;20608;-74
2023/04/16 03:17:24;;;;;;;43.13;36.87;;;;;;;9.58;100.00;100407.81;5031189;28;20274;-73
2023/04/16 03:19:50;;;;;;;42.47;36.73;;;;;;;9.59;100.00;100416.44;5036436;28;20654;-74
2023/04/16 03:22:16;;;;;;;45.00;37.00;;;;;;;9.58;100.00;100410.41;5053116;28;20219;-73
2023/04/16 03:24:41;;;;;;;45.60;37.60;;;;;;;9.58;100.00;100414.72;5043132;28;20186;-74
2023/04/16 03:27:07;;;;;;;47.50;39.47;;;;;;;9.58;100.00;100409.56;5034415;28;21020;-73
2023/04/16 03:29:32;;;;;;;45.23;38.87;;;;;;;9.56;100.00;100406.97;5051599;28;20257;-74
2023/04/16 03:31:57;;;;;;;47.23;39.27;;;;;;;9.55;100.00;100407.81;5040245;28;20688;-71
2023/04/16 03:34:23;;;;;;;47.83;38.73;;;;;;;9.55;100.00;100412.16;5040528;28;20196;-73
2023/04/16 03:36:48;;;;;;;46.00;38.03;;;;;;;9.54;100.00;100410.44;5036842;28;20214;-73
2023/04/16 03:39:14;;;;;;;46.40;38.77;;;;;;;9.55;100.00;100413.00;5042973;28;20236;-72
2023/04/16 03:41:39;;;;;;;47.27;38.33;;;;;;;9.54;100.00;100423.34;5034645;28;20248;-73
2023/04/16 03:44:04;;;;;;;46.30;38.17;;;;;;;9.53;100.00;100421.63;5030275;28;20587;-73
2023/04/16 03:46:29;;;;;;;46.80;39.13;;;;;;;9.53;100.00;100421.63;5035761;28;20207;-72
2023/04/16 03:48:55;;;;;;;48.87;39.57;;;;;;;9.52;100.00;100419.91;5034541;28;20191;-73
2023/04/16 03:51:20;;;;;;;43.57;37.27;;;;;;;9.50;100.00;100422.50;5031328;28;20949;-74
2023/04/16 03:53:45;;;;;;;44.23;37.63;;;;;;;9.52;100.00;100423.34;5033917;28;20211;-72
2023/04/16 03:56:11;;;;;;;43.37;36.27;;;;;;;9.52;100.00;100422.47;5033332;28;20211;-73
2023/04/16 03:58:36;;;;;;;41.93;36.10;;;;;;;9.53;100.00;100419.88;5037035;28;21024;-74
2023/04/16 04:01:01;;;;;;;45.20;37.57;;;;;;;9.52;100.00;100422.47;5032167;28;20188;-74
2023/04/16 04:03:27;;;;;;;41.20;35.73;;;;;;;9.53;100.00;100429.38;5040120;28;20195;-73
2023/04/16 04:05:52;;;;;;;43.97;38.03;;;;;;;9.52;100.00;100423.34;5030058;28;20234;-73
2023/04/16 04:08:17;;;;;;;42.43;37.33;;;;;;;9.53;100.00;100422.47;5041985;28;20281;-72
2023/04/16 04:10:44;;;;;;;42.53;37.40;;;;;;;9.52;100.00;100422.47;5039787;28;20218;-75
2023/04/16 04:13:09;;;;;;;42.10;36.10;;;;;;;9.53;100.00;100426.78;5046092;28;20196;-74
2023/04/16 04:15:35;;;;;;;40.23;35.67;;;;;;;9.52;100.00;100427.66;5034396;28;20212;-74
2023/04/16 04:18:00;;;;;;;43.07;37.13;;;;;;;9.52;100.00;100438.00;5033910;28;20211;-73
2023/04/16 04:20:26;;;;;;;41.40;36.67;;;;;;;9.50;100.00;100438.00;5032860;28;20276;-74
2023/04/16 04:22:51;;;;;;;38.70;34.50;;;;;;;9.51;100.00;100436.25;5030604;28;20199;-73
2023/04/16 04:25:16;;;;;;;40.90;34.67;;;;;;;9.51;100.00;100444.00;5029359;28;20215;-73
2023/04/16 04:27:42;;;;;;;39.33;35.03;;;;;;;9.50;100.00;100439.72;5039081;28;20199;-73
2023/04/16 04:30:08;;;;;;;37.10;32.90;;;;;;;9.51;100.00;100433.69;5044711;28;20304;-72
2023/04/16 04:32:34;;;;;;;36.93;32.40;;;;;;;9.53;100.00;100447.47;5033451;28;20195;-73
2023/04/16 04:35:01;;;;;;;37.97;33.87;;;;;;;9.53;100.00;100443.13;5041303;28;20210;-74
2023/04/16 04:37:26;;;;;;;36.73;32.80;;;;;;;9.55;100.00;100449.16;5032873;28;20192;-74
2023/04/16 04:39:52;;;;;;;36.60;32.63;;;;;;;9.56;100.00;100450.03;5040429;28;20540;-75
2023/04/16 04:42:18;;;;;;;38.00;33.47;;;;;;;9.56;100.00;100458.63;5040943;28;20192;-73
2023/04/16 04:44:44;;;;;;;37.03;32.97;;;;;;;9.57;100.00;100451.75;5043806;28;20269;-73
2023/04/16 04:47:09;;;;;;;36.77;32.77;;;;;;;9.58;100.00;100458.66;5035114;28;20186;-73
2023/04/16 04:49:35;;;;;;;39.23;35.03;;;;;;;9.56;100.00;100463.81;5031673;28;20948;-71
2023/04/16 04:52:00;;;;;;;40.83;36.50;;;;;;;9.56;100.00;100460.38;5042152;28;20193;-73
2023/04/16 04:54:27;;;;;;;40.37;34.87;;;;;;;9.55;100.00;100464.66;5036442;28;20178;-74
2023/04/16 04:56:52;;;;;;;39.87;34.70;;;;;;;9.54;100.00;100467.28;5036035;28;20295;-73
2023/04/16 04:59:19;;;;;;;36.33;32.43;;;;;;;9.54;100.00;100470.69;5040137;28;20270;-75
2023/04/16 05:01:45;;;;;;;37.53;33.73;;;;;;;9.56;100.00;100473.28;5035386;28;20223;-74
2023/04/16 05:04:10;;;;;;;36.50;32.50;;;;;;;9.55;100.00;100480.16;5044778;28;20221;-74
2023/04/16 05:06:35;;;;;;;37.53;33.40;;;;;;;9.55;100.00;100476.75;5038189;28;20589;-72
2023/04/16 05:09:01;;;;;;;38.10;33.93;;;;;;;9.56;100.00;100483.63;5036776;28;20187;-75
2023/04/16 05:11:26;;;;;;;37.03;32.97;;;;;;;9.56;100.00;100484.47;5036623;28;20218;-76
2023/04/16 05:13:51;;;;;;;38.97;34.17;;;;;;;9.58;100.00;100489.66;5028986;28;20198;-74
2023/04/16 05:16:17;;;;;;;37.93;33.37;;;;;;;9.59;100.00;100483.63;5036048;28;20721;-75
2023/04/16 05:18:42;;;;;;;37.43;33.23;;;;;;;9.60;100.00;100490.53;5043615;28;20202;-75
2023/04/16 05:21:07;;;;;;;37.67;33.67;;;;;;;9.60;100.00;100490.53;5030664;28;20192;-73
2023/04/16 05:23:33;;;;;;;35.97;32.07;;;;;;;9.61;100.00;100497.38;5031415;28;20234;-76
2023/04/16 05:25:58;;;;;;;35.37;31.53;;;;;;;9.62;100.00;100499.09;5039470;28;20207;-73
2023/04/16 05:28:23;;;;;;;35.03;31.23;;;;;;;9.62;100.00;100501.69;5035519;28;20214;-74
2023/04/16 05:30:49;;;;;;;34.70;30.57;;;;;;;9.62;100.00;100504.28;5036778;28;20587;-76
2023/04/16 05:33:15;;;;;;;35.20;31.50;;;;;;;9.63;100.00;100508.56;5036815;28;20285;-76
2023/04/16 05:35:40;;;;;;;33.93;30.43;;;;;;;9.63;100.00;100513.75;5032133;28;20313;-74
2023/04/16 05:38:05;;;;;;;34.73;30.83;;;;;;;9.61;100.00;100513.75;5041671;28;20222;-74
2023/04/16 05:40:31;;;;;;;34.47;30.87;;;;;;;9.61;100.00;100513.75;5053911;28;20175;-74
2023/04/16 05:42:56;;;;;;;33.37;29.77;;;;;;;9.63;100.00;100513.75;5035976;28;20195;-75
2023/04/16 05:45:22;;;;;;;31.83;28.37;;;;;;;9.61;100.00;100521.50;5041395;28;20217;-77
2023/04/16 05:47:47;;;;;;;30.83;27.60;;;;;;;9.60;100.00;100521.53;5036928;28;20196;-75
2023/04/16 05:50:12;;;;;;;31.20;28.00;;;;;;;9.53;100.00;100520.66;5036948;28;20273;-74
2023/04/16 05:52:37;;;;;;;29.97;26.77;;;;;;;9.50;100.00;100524.97;5039735;28;20691;-76
2023/04/16 05:55:03;;;;;;;29.67;26.60;;;;;;;9.48;100.00;100531.84;5037756;28;20212;-75
2023/04/16 05:57:29;;;;;;;27.00;24.20;;;;;;;9.49;100.00;100531.00;5039667;28;20183;-76
2023/04/16 05:59:54;;;;;;;26.43;23.77;;;;;;;9.49;100.00;100533.56;5034646;28;20187;-74
2023/04/16 06:02:19;;;;;;;26.53;23.73;;;;;;;9.50;100.00;100523.25;5039211;28;20195;-74
2023/04/16 06:04:45;;;;;;;27.13;23.67;;;;;;;9.54;100.00;100537.03;5038596;28;20180;-75
2023/04/16 06:07:10;;;;;;;24.37;21.87;;;;;;;9.54;100.00;100535.28;5044051;28;20203;-77
2023/04/16 06:09:35;;;;;;;25.07;22.47;;;;;;;9.55;100.00;100531.84;5038982;28;20206;-74
2023/04/16 06:12:01;;;;;;;23.23;20.83;;;;;;;9.57;100.00;100530.13;5051890;28;20404;-76
2023/04/16 06:14:26;;;;;;;23.63;20.93;;;;;;;9.59;100.00;100536.16;5025625;28;20847;-76
2023/04/16 06:16:52;;;;;;;23.23;20.93;;;;;;;9.63;100.00;100538.75;5044625;28;20286;-76
2023/04/16 06:19:17;;;;;;;23.20;20.80;;;;;;;9.63;100.00;100539.59;5019731;28;20199;-74
2023/04/16 06:21:42;;;;;;;23.00;20.50;;;;;;;9.65;100.00;100545.63;5028327;28;20195;-74
2023/04/16 06:24:08;;;;;;;22.10;19.80;;;;;;;9.67;100.00;100551.66;5029945;28;20191;-73
2023/04/16 06:26:33;;;;;;;22.37;19.97;;;;;;;9.68;100.00;100544.78;5027199;28;20219;-74
2023/04/16 06:28:58;;;;;;;20.77;18.57;;;;;;;9.69;100.00;100551.63;5027458;28;20245;-74
2023/04/16 06:31:24;;;;;;;20.97;18.77;;;;;;;9.68;100.00;100555.97;5031865;28;20207;-74
2023/04/16 06:33:49;;;;;;;20.90;18.70;;;;;;;9.69;100.00;100554.22;5028644;28;20266;-74
2023/04/16 06:36:15;;;;;;;22.00;19.70;;;;;;;9.70;100.00;100556.81;5030390;28;20210;-73
2023/04/16 06:38:41;;;;;;;22.07;19.60;;;;;;;9.74;100.00;100563.72;5040864;28;20249;-76
2023/04/16 06:41:06;;;;;;;21.33;19.03;;;;;;;9.76;100.00;100559.38;5032978;28;20212;-72
2023/04/16 06:43:32;;;;;;;21.20;19.00;;;;;;;9.80;100.00;100564.56;5027299;28;20282;-72
2023/04/16 06:45:58;;;;;;;20.43;18.23;;;;;;;9.84;100.00;100568.88;5027594;28;20996;-72
2023/04/16 06:48:23;;;;;;;20.77;18.57;;;;;;;9.85;100.00;100563.69;5026922;28;20187;-75
2023/04/16 06:50:49;;;;;;;21.83;19.20;;;;;;;9.89;100.00;100564.56;5025391;28;20556;-73
2023/04/16 06:53:14;;;;;;;21.10;18.93;;;;;;;9.94;100.00;100565.38;5029310;28;20222;-74
2023/04/16 06:55:39;;;;;;;20.47;18.27;;;;;;;10.00;100.00;100572.28;5024276;28;20296;-73
2023/04/16 06:58:05;;;;;;;21.07;18.87;;;;;;;10.06;100.00;100572.28;5032509;28;20191;-73
2023/04/16 07:00:30;;;;;;;21.30;19.10;;;;;;;10.12;100.00;100574.84;5026723;28;20198;-72
2023/04/16 07:02:58;;;;;;;20.90;18.70;;;;;;;10.14;100.00;100574.84;5032597;28;20204;-73
2023/04/16 07:05:24;;;;;;;20.47;18.27;;;;;;;10.16;100.00;100573.13;5040664;28;20206;-72
2023/04/16 07:07:49;;;;;;;23.20;20.60;;;;;;;10.22;100.00;100575.66;5027015;28;20665;-74
2023/04/16 07:10:15;;;;;;;24.20;21.30;;;;;;;10.30;100.00;100580.81;5025723;28;20211;-72
2023/04/16 07:12:40;;;;;;;28.40;23.17;;;;;;;10.35;100.00;100572.19;5022254;28;20189;-72
2023/04/16 07:15:06;;;;;;;27.27;24.37;;;;;;;10.44;100.00;100571.31;5035003;28;20215;-72
2023/04/16 07:17:31;;;;;;;29.97;26.73;;;;;;;10.51;100.00;100574.75;5032370;28;21084;-72
2023/04/16 07:19:57;;;;;;;31.17;28.10;;;;;;;10.58;100.00;100573.00;5027427;28;20274;-70
2023/04/16 07:22:22;;;;;;;28.60;25.70;;;;;;;10.64;100.00;100566.06;5037741;28;20184;-73
2023/04/16 07:24:47;;;;;;;25.70;23.13;;;;;;;10.71;100.00;100577.25;5029440;28;20285;-72
2023/04/16 07:27:13;;;;;;;23.90;21.60;;;;;;;10.76;100.00;100572.06;5030389;28;20184;-73
2023/04/16 07:29:38;;;;;;;22.73;20.33;;;;;;;10.79;100.00;100577.22;5029912;28;20989;-74
2023/04/16 07:32:04;;;;;;;22.57;20.20;;;;;;;10.79;100.00;100580.66;5027022;28;20200;-71
2023/04/16 07:34:29;;;;;;;21.33;19.23;;;;;;;10.78;100.00;100584.09;5025351;28;20605;-75
2023/04/16 07:36:55;;;;;;;21.10;19.00;;;;;;;10.79;100.00;100588.41;5026314;28;20294;-72
2023/04/16 07:39:20;;;;;;;21.70;19.57;;;;;;;10.79;100.00;100590.16;5030910;28;20194;-74
2023/04/16 07:41:45;;;;;;;23.83;21.53;;;;;;;10.77;100.00;100594.50;5028307;28;20216;-72
2023/04/16 07:44:11;;;;;;;23.13;20.83;;;;;;;10.75;100.00;100596.22;5018163;28;20962;-73
2023/04/16 07:46:36;;;;;;;21.77;19.53;;;;;;;10.71;100.00;100602.28;5019667;28;20653;-75
2023/04/16 07:49:01;;;;;;;19.80;17.87;;;;;;;10.70;100.00;100597.94;5021623;28;20188;-73
2023/04/16 07:51:27;;;;;;;19.23;17.33;;;;;;;10.67;100.00;100598.84;5018588;28;20223;-74
2023/04/16 07:53:52;;;;;;;20.53;18.43;;;;;;;10.66;100.00;100600.56;5022758;28;20184;-73
2023/04/16 07:56:17;;;;;;;20.33;18.23;;;;;;;10.68;100.00;100593.66;5026206;28;20204;-72
2023/04/16 07:58:42;;;;;;;19.37;17.30;;;;;;;10.71;100.00;100599.69;5033866;28;20263;-73
2023/04/16 08:01:08;;;;;;;20.23;18.13;;;;;;;10.72;100.00;100606.56;5028110;28;20261;-75
2023/04/16 08:03:33;;;;;;;19.07;17.03;;;;;;;10.72;100.00;100606.56;5029044;28;20280;-73
2023/04/16 08:05:59;;;;;;;19.60;17.50;;;;;;;10.73;100.00;100611.78;5029776;28;20233;-74
2023/04/16 08:08:24;;;;;;;18.37;16.47;;;;;;;10.73;100.00;100616.06;5030265;28;20215;-74
2023/04/16 08:10:54;;;;;;;18.37;16.50;;;;;;;10.73;100.00;100608.31;5030383;28;20209;-71
2023/04/16 08:13:20;;;;;;;16.43;14.73;;;;;;;10.71;100.00;100618.69;5033554;28;20186;-73
2023/04/16 08:15:46;;;;;;;18.17;16.23;;;;;;;10.72;100.00;100611.75;5029322;28;20715;-73
2023/04/16 08:18:14;;;;;;;17.77;15.90;;;;;;;10.74;100.00;100621.22;5028619;28;20196;-74
2023/04/16 08:20:39;;;;;;;18.60;16.70;;;;;;;10.78;100.00;100616.91;5031502;28;20185;-75
2023/04/16 08:23:05;;;;;;;18.80;16.80;;;;;;;10.83;100.00;100620.31;5033853;28;20189;-73
2023/04/16 08:25:30;;;;;;;26.60;23.70;;;;;;;10.93;100.00;100626.31;5026841;28;20210;-73
2023/04/16 08:27:55;;;;;;;26.93;24.13;;;;;;;11.00;100.00;100622.84;5045316;28;20199;-72
2023/04/16 08:30:21;;;;;;;24.30;21.83;;;;;;;11.07;100.00;100628.84;5029841;28;21077;-73
2023/04/16 08:32:47;;;;;;;22.07;19.77;;;;;;;11.12;100.00;100635.72;5030195;28;20191;-73
2023/04/16 08:35:12;;;;;;;20.57;18.47;;;;;;;11.18;100.00;100631.41;5043089;28;20260;-73
2023/04/16 08:37:37;;;;;;;18.80;16.90;;;;;;;11.24;100.00;100641.69;5031083;28;20195;-73
2023/04/16 08:40:03;;;;;;;18.60;16.80;;;;;;;11.27;100.00;100644.28;5025672;28;20184;-74
2023/04/16 08:42:31;;;;;;;17.60;15.80;;;;;;;11.29;100.00;100645.97;5026749;28;20247;-74
2023/04/16 08:45:16;;;;;;;17.57;15.67;;;;;;;11.34;100.00;100640.78;5025031;28;20211;-71
2023/04/16 08:47:45;;;;;;;15.97;14.47;;;;;;;11.42;100.00;100651.06;5034035;28;20929;-73
2023/04/16 08:50:13;;;;;;;17.13;15.43;;;;;;;11.49;100.00;100649.34;5024200;28;20238;-75
2023/04/16 08:52:44;;;;;;;18.10;16.40;;;;;;;11.52;100.00;100644.97;5026691;28;20191;-73
2023/04/16 08:55:15;;;;;;;16.47;14.87;;;;;;;11.53;100.00;100651.88;5026883;28;20270;-74
2023/04/16 08:57:56;;;;;;;15.77;14.23;;;;;;;11.60;100.00;100652.69;5025528;28;20180;-73
2023/04/16 09:00:22;;;;;;;16.37;14.87;;;;;;;11.69;100.00;100642.25;5026371;28;20196;-74
2023/04/16 09:02:49;;;;;;;16.13;14.67;;;;;;;11.81;100.00;100654.25;5024529;28;20232;-75
2023/04/16 09:05:19;;;;;;;15.37;13.87;;;;;;;11.93;100.00;100652.44;5025310;28;20352;-73
2023/04/16 09:07:45;;;;;;;13.60;12.30;;;;;;;12.02;100.00;100658.44;5024402;28;20176;-73
2023/04/16 09:10:12;;;;;;;13.50;12.13;;;;;;;12.09;100.00;100648.88;5028255;28;20208;-75
2023/04/16 09:12:39;;;;;;;12.43;11.23;;;;;;;12.23;100.00;100653.94;5044078;28;20184;-74
2023/04/16 09:15:05;;;;;;;12.40;11.20;;;;;;;12.38;100.00;100655.50;5035519;28;20710;-73
2023/04/16 09:17:31;;;;;;;11.63;10.43;;;;;;;12.50;100.00;100660.53;5035457;28;20197;-73
2023/04/16 09:19:56;;;;;;;11.73;10.63;;;;;;;12.55;100.00;100657.94;5029476;28;20190;-71
2023/04/16 09:22:22;;;;;;;11.33;10.33;;;;;;;12.54;100.00;100653.59;5027112;28;21816;-74
2023/04/16 09:24:47;;;;;;;11.00;10.00;;;;;;;12.42;100.00;100658.91;5027284;28;20200;-73
2023/04/16 09:27:12;;;;;;;11.17;10.17;;;;;;;12.41;100.00;100649.41;5029061;28;20862;-74
2023/04/16 09:29:40;;;;;;;11.07;10.07;;;;;;;12.43;100.00;100658.91;5027214;28;20666;-73
2023/04/16 09:32:10;;;;;;;11.40;10.33;;;;;;;12.46;100.00;100663.19;5023053;28;20200;-74
2023/04/16 09:34:56;;;;;;;10.67;9.67;;;;;;;12.43;100.00;100658.03;5023310;28;20308;-73
2023/04/16 09:37:22;;;;;;;10.40;9.40;;;;;;;12.38;100.00;100665.88;5027153;28;20268;-72
2023/04/16 09:39:58;;;;;;;9.67;8.77;;;;;;;12.32;100.00;100671.16;5029876;28;20279;-73
2023/04/16 09:42:26;;;;;;;9.80;8.90;;;;;;;12.28;100.00;100672.03;5024708;28;20183;-74
2023/04/16 09:44:52;;;;;;;10.17;9.17;;;;;;;12.24;100.00;100672.94;5025748;28;20837;-72
2023/04/16 09:47:18;;;;;;;10.80;9.80;;;;;;;12.19;100.00;100671.25;5029415;28;20195;-74
2023/04/16 09:49:44;;;;;;;13.80;12.50;;;;;;;12.14;100.00;100670.44;5032064;28;20230;-73
2023/04/16 09:52:18;;;;;;;11.90;10.80;;;;;;;12.10;100.00;100666.16;5031699;28;20221;-75
2023/04/16 09:54:52;;;;;;;15.03;13.67;;;;;;;12.06;100.00;100672.22;5031379;28;20185;-74
2023/04/16 09:57:22;;;;;;;23.83;21.57;;;;;;;12.01;100.00;100674.03;5024701;28;20557;-74
2023/04/16 10:00:01;;;;;;;16.33;14.83;;;;;;;11.91;100.00;100673.22;5027804;28;20657;-74
2023/04/16 10:02:27;;;;;;;14.83;13.40;;;;;;;11.82;100.00;100679.31;5025860;28;20191;-74
2023/04/16 10:04:53;;;;;;;13.33;12.23;;;;;;;11.77;100.00;100680.25;5026051;28;20200;-75
2023/04/16 10:07:19;;;;;;;16.17;14.67;;;;;;;11.75;100.00;100682.81;5030895;28;20208;-75
2023/04/16 10:09:47;;;;;;;15.50;14.00;;;;;;;11.74;100.00;100681.09;5029858;28;20820;-72
2023/04/16 10:12:13;;;;;;;13.63;12.33;;;;;;;11.69;100.00;100688.06;5028927;28;20221;-73
2023/04/16 10:14:39;;;;;;;15.33;10.77;;;;;;;11.69;100.00;100694.09;5030378;28;20746;-73
2023/04/16 10:17:07;;;;;;;12.47;11.27;;;;;;;11.65;100.00;100684.63;5026222;28;20238;-74
2023/04/16 10:19:33;;;;;;;11.67;10.47;;;;;;;11.63;100.00;100688.97;5029922;28;20547;-75
2023/04/16 10:21:59;;;;;;;11.60;10.60;;;;;;;11.67;100.00;100690.66;5043529;28;20191;-74
2023/04/16 10:24:25;;;;;;;11.83;10.73;;;;;;;11.75;100.00;100695.78;5028644;28;20195;-75
2023/04/16 10:26:51;;;;;;;11.83;10.73;;;;;;;11.78;100.00;100695.78;5027983;28;20284;-76
2023/04/16 10:29:21;;;;;;;11.37;10.27;;;;;;;11.88;100.00;100699.16;5049958;28;20315;-74
2023/04/16 10:31:48;;;;;;;10.97;9.97;;;;;;;11.98;100.00;100699.94;5042324;28;20279;-72
2023/04/16 10:34:14;;;;;;;10.30;9.30;;;;;;;12.03;100.00;100699.06;5034343;28;20184;-74
2023/04/16 10:36:40;;;;;;;11.13;10.13;;;;;;;12.13;100.00;100693.78;5052332;28;20201;-75
2023/04/16 10:39:10;;;;;;;11.20;10.13;;;;;;;12.17;100.00;100700.69;5033779;28;20238;-74
2023/04/16 10:41:36;;;;;;;9.77;8.97;;;;;;;12.19;100.00;100696.34;5025355;28;20542;-73
2023/04/16 10:44:08;;;;;;;11.33;10.27;;;;;;;12.24;100.00;100711.88;5032368;28;20187;-73
2023/04/16 10:46:41;;;;;;;10.47;9.47;;;;;;;12.27;100.00;100702.31;5027373;28;20204;-74
2023/04/16 10:49:23;;;;;;;11.27;10.27;;;;;;;12.29;100.00;100703.16;5026649;28;20775;-75
2023/04/16 10:51:57;;;;;;;10.70;9.70;;;;;;;12.11;100.00;100700.72;5024057;28;20216;-74
2023/04/16 10:54:27;;;;;;;11.70;10.60;;;;;;;12.05;100.00;100699.03;5025637;28;21075;-75
2023/04/16 10:56:55;;;;;;;10.47;9.47;;;;;;;12.03;100.00;100700.78;5025430;28;20209;-74
2023/04/16 10:59:22;;;;;;;11.00;9.90;;;;;;;12.02;100.00;100704.28;5024691;28;20189;-73
2023/04/16 11:01:57;;;;;;;10.83;9.83;;;;;;;11.94;100.00;100706.91;5022961;28;20337;-73